createdAt,value
2019-04-29T00:02:27.354Z,11.10
2019-04-29T00:04:57.310Z,12.70
2019-04-29T00:07:28.382Z,11.63
2019-04-29T00:09:58.432Z,12.10
2019-04-29T00:12:29.917Z,11.47
2019-04-29T00:15:13.885Z,10.87
2019-04-29T00:17:56.766Z,12.47
2019-04-29T00:20:33.259Z,12.77
2019-04-29T00:23:03.573Z,13.87
2019-04-29T00:25:33.957Z,14.43
2019-04-29T00:28:04.112Z,13.27
2019-04-29T00:30:34.188Z,12.30
2019-04-29T00:33:04.249Z,11.90
2019-04-29T00:35:35.357Z,12.80
2019-04-29T00:38:30.212Z,11.43
2019-04-29T00:41:19.464Z,11.67
2019-04-29T00:44:01.082Z,11.93
2019-04-29T00:46:31.138Z,13.20
2019-04-29T00:49:01.127Z,12.37
2019-04-29T00:51:31.283Z,10.87
2019-04-29T00:54:12.254Z,11.80
2019-04-29T00:56:42.257Z,10.83
2019-04-29T00:59:12.253Z,11.70
2019-04-29T01:01:43.296Z,11.03
2019-04-29T01:04:13.453Z,10.97
2019-04-29T01:06:44.470Z,11.23
2019-04-29T01:09:16.639Z,11.87
2019-04-29T01:11:46.614Z,10.90
2019-04-29T01:14:16.685Z,10.70
2019-04-29T01:16:46.657Z,10.63
2019-04-29T01:19:16.852Z,10.53
2019-04-29T01:21:46.841Z,10.40
2019-04-29T01:24:16.870Z,9.97
2019-04-29T01:27:17.958Z,11.10
2019-04-29T01:29:48.198Z,11.50
2019-04-29T01:32:18.465Z,10.80
2019-04-29T01:34:53.506Z,10.90
2019-04-29T01:37:41.356Z,10.77
2019-04-29T01:40:33.242Z,9.53
2019-04-29T01:43:03.245Z,11.50
2019-04-29T01:45:34.236Z,12.30
2019-04-29T01:48:04.209Z,12.37
2019-04-29T01:50:34.209Z,11.27
2019-04-29T01:53:04.246Z,11.93
2019-04-29T01:55:34.356Z,11.93
2019-04-29T01:58:04.367Z,10.60
2019-04-29T02:00:34.334Z,11.20
2019-04-29T02:03:04.261Z,11.67
2019-04-29T02:05:34.384Z,11.40
2019-04-29T02:08:04.721Z,11.70
2019-04-29T02:10:35.330Z,11.03
2019-04-29T02:13:05.294Z,11.53
2019-04-29T02:15:35.380Z,10.63
2019-04-29T02:18:05.352Z,10.33
2019-04-29T02:20:35.365Z,9.80
2019-04-29T02:23:16.662Z,10.60
2019-04-29T02:25:46.998Z,10.17
2019-04-29T02:28:16.899Z,9.60
2019-04-29T02:30:49.074Z,10.93
2019-04-29T02:33:19.164Z,10.87
2019-04-29T02:35:49.209Z,10.93
2019-04-29T02:38:32.826Z,11.97
2019-04-29T02:41:12.543Z,11.37
2019-04-29T02:43:44.140Z,11.30
2019-04-29T02:46:14.201Z,10.27
2019-04-29T02:48:44.732Z,10.70
2019-04-29T02:51:16.446Z,11.10
2019-04-29T02:53:46.544Z,11.07
2019-04-29T02:56:16.517Z,11.30
2019-04-29T02:58:58.491Z,11.27
2019-04-29T03:01:43.545Z,11.70
2019-04-29T03:04:16.767Z,11.00
2019-04-29T03:06:47.214Z,11.07
2019-04-29T03:09:17.197Z,10.73
2019-04-29T03:11:47.246Z,11.00
2019-04-29T03:14:17.319Z,11.97
2019-04-29T03:16:47.378Z,12.17
2019-04-29T03:19:28.998Z,11.07
2019-04-29T03:22:01.062Z,10.93
2019-04-29T03:24:31.364Z,11.37
2019-04-29T03:27:01.345Z,10.90
2019-04-29T03:29:31.409Z,11.30
2019-04-29T03:32:01.453Z,11.37
2019-04-29T03:34:31.537Z,10.30
2019-04-29T03:37:01.621Z,11.20
2019-04-29T03:39:31.614Z,10.43
2019-04-29T03:42:01.819Z,9.93
2019-04-29T03:44:31.859Z,10.60
2019-04-29T03:47:01.837Z,9.67
2019-04-29T03:49:32.150Z,10.63
2019-04-29T03:52:02.143Z,10.53
2019-04-29T03:54:31.994Z,9.33
2019-04-29T03:57:01.995Z,10.07
2019-04-29T03:59:32.038Z,10.00
2019-04-29T04:02:15.723Z,10.17
2019-04-29T04:05:08.319Z,10.93
2019-04-29T04:07:46.484Z,10.33
2019-04-29T04:10:16.665Z,10.23
2019-04-29T04:12:46.640Z,10.70
2019-04-29T04:15:17.698Z,13.10
2019-04-29T04:17:57.499Z,12.70
2019-04-29T04:20:27.924Z,12.13
2019-04-29T04:22:58.205Z,12.13
2019-04-29T04:25:28.296Z,12.00
2019-04-29T04:27:58.417Z,10.73
2019-04-29T04:30:28.331Z,11.10
2019-04-29T04:32:58.519Z,11.93
2019-04-29T04:35:28.564Z,11.17
2019-04-29T04:37:58.567Z,11.70
2019-04-29T04:40:35.717Z,12.13
2019-04-29T04:43:05.809Z,11.93
2019-04-29T04:45:35.798Z,11.83
2019-04-29T04:48:05.820Z,12.00
2019-04-29T04:50:36.269Z,12.10
2019-04-29T04:53:06.265Z,12.37
2019-04-29T04:55:37.914Z,13.07
2019-04-29T04:58:08.019Z,13.13
2019-04-29T05:00:38.521Z,13.97
2019-04-29T05:03:08.609Z,15.53
2019-04-29T05:05:38.663Z,13.77
2019-04-29T05:08:08.637Z,13.80
2019-04-29T05:10:38.719Z,14.00
2019-04-29T05:13:08.750Z,14.87
2019-04-29T05:15:38.745Z,14.83
2019-04-29T05:18:08.716Z,14.93
2019-04-29T05:20:38.738Z,15.73
2019-04-29T05:23:08.689Z,14.73
2019-04-29T05:25:38.703Z,15.27
2019-04-29T05:28:08.737Z,16.10
2019-04-29T05:30:38.747Z,17.10
2019-04-29T05:33:09.792Z,15.33
2019-04-29T05:35:51.798Z,15.70
2019-04-29T05:38:40.990Z,14.53
2019-04-29T05:41:11.350Z,15.97
2019-04-29T05:43:47.233Z,16.50
2019-04-29T05:46:27.210Z,16.07
2019-04-29T05:48:57.122Z,16.37
2019-04-29T05:51:51.921Z,16.40
2019-04-29T05:54:22.005Z,16.37
2019-04-29T05:56:52.455Z,16.50
2019-04-29T05:59:22.432Z,16.87
2019-04-29T06:01:52.820Z,16.13
2019-04-29T06:04:22.812Z,15.17
2019-04-29T06:06:52.805Z,15.77
2019-04-29T06:09:22.710Z,14.47
2019-04-29T06:11:52.597Z,16.30
2019-04-29T06:14:22.952Z,15.73
2019-04-29T06:16:53.110Z,16.90
2019-04-29T06:19:24.638Z,17.07
2019-04-29T06:21:54.612Z,20.73
2019-04-29T06:24:24.521Z,18.63
2019-04-29T06:26:54.430Z,17.33
2019-04-29T06:29:24.430Z,17.47
2019-04-29T06:31:54.479Z,17.73
2019-04-29T06:34:24.439Z,18.17
2019-04-29T06:36:55.051Z,17.47
2019-04-29T06:39:25.348Z,18.43
2019-04-29T06:41:55.405Z,18.77
2019-04-29T06:44:25.386Z,17.77
2019-04-29T06:46:56.341Z,17.60
2019-04-29T06:49:26.447Z,18.20
2019-04-29T06:51:56.417Z,19.70
2019-04-29T06:54:26.415Z,18.10
2019-04-29T06:56:56.400Z,17.97
2019-04-29T06:59:26.813Z,18.43
2019-04-29T07:01:56.767Z,19.00
2019-04-29T07:04:30.540Z,18.90
2019-04-29T07:06:58.465Z,19.50
2019-04-29T07:09:28.476Z,18.07
2019-04-29T07:12:01.544Z,18.50
2019-04-29T07:14:33.331Z,19.00
2019-04-29T07:17:05.694Z,18.23
2019-04-29T07:19:33.341Z,20.60
2019-04-29T07:22:03.369Z,18.93
2019-04-29T07:24:33.345Z,17.30
2019-04-29T07:27:04.634Z,18.80
2019-04-29T07:29:37.782Z,17.07
2019-04-29T07:32:09.341Z,17.03
2019-04-29T07:34:39.603Z,17.13
2019-04-29T07:37:09.885Z,16.60
2019-04-29T07:39:39.927Z,16.00
2019-04-29T07:42:09.973Z,16.83
2019-04-29T07:44:48.952Z,16.77
2019-04-29T07:47:19.404Z,16.47
2019-04-29T07:49:51.403Z,16.60
2019-04-29T07:52:21.065Z,15.57
2019-04-29T07:54:55.059Z,14.43
2019-04-29T07:57:23.338Z,15.37
2019-04-29T07:59:53.313Z,14.47
2019-04-29T08:02:23.310Z,14.90
2019-04-29T08:04:53.336Z,15.37
2019-04-29T08:07:23.757Z,14.80
2019-04-29T08:09:53.824Z,13.80
2019-04-29T08:12:25.156Z,14.65
2019-04-29T08:14:58.134Z,14.03
2019-04-29T08:17:28.017Z,14.00
2019-04-29T08:20:00.601Z,12.43
2019-04-29T08:22:29.493Z,12.50
2019-04-29T08:24:59.808Z,12.68
2019-04-29T08:27:39.519Z,13.48
2019-04-29T08:30:06.718Z,11.95
2019-04-29T08:32:36.450Z,11.15
2019-04-29T08:35:07.414Z,12.85
2019-04-29T08:37:37.383Z,12.73
2019-04-29T08:40:15.941Z,11.83
2019-04-29T08:42:46.680Z,9.43
2019-04-29T08:45:48.525Z,11.53
2019-04-29T08:48:18.517Z,9.65
2019-04-29T08:50:48.550Z,8.85
2019-04-29T08:53:19.983Z,8.85
2019-04-29T08:55:49.956Z,7.72
2019-04-29T08:58:19.923Z,7.75
2019-04-29T09:00:51.410Z,7.58
2019-04-29T09:03:23.510Z,7.25
2019-04-29T09:06:05.062Z,7.70
2019-04-29T09:08:28.821Z,7.12
2019-04-29T09:10:56.557Z,9.25
2019-04-29T09:13:26.550Z,8.33
2019-04-29T09:15:56.491Z,8.13
2019-04-29T09:18:26.525Z,8.08
2019-04-29T09:20:56.810Z,8.25
2019-04-29T09:23:29.276Z,9.68
2019-04-29T09:26:24.095Z,8.13
2019-04-29T09:28:52.955Z,7.47
2019-04-29T09:31:22.952Z,8.05
2019-04-29T09:34:06.001Z,8.40
2019-04-29T09:36:24.596Z,7.40
2019-04-29T09:38:54.566Z,8.00
2019-04-29T09:41:41.033Z,7.37
2019-04-29T09:44:45.027Z,7.58
2019-04-29T09:47:16.353Z,6.78
2019-04-29T09:49:46.538Z,6.42
2019-04-29T09:52:16.506Z,6.47
2019-04-29T09:54:46.732Z,6.33
2019-04-29T09:57:16.742Z,6.05
2019-04-29T09:59:52.723Z,5.33
2019-04-29T10:02:47.597Z,5.35
2019-04-29T10:05:37.271Z,5.30
2019-04-29T10:08:07.651Z,5.00
2019-04-29T10:10:37.705Z,4.58
2019-04-29T10:13:07.940Z,4.58
2019-04-29T10:15:48.030Z,4.30
2019-04-29T10:18:25.148Z,4.45
2019-04-29T10:21:01.799Z,4.30
2019-04-29T10:23:31.761Z,4.78
2019-04-29T10:26:01.843Z,5.20
2019-04-29T10:28:33.097Z,4.87
2019-04-29T10:31:03.529Z,4.72
2019-04-29T10:33:33.514Z,5.00
2019-04-29T10:36:03.496Z,4.67
2019-04-29T10:38:33.449Z,4.78
2019-04-29T10:41:21.804Z,4.53
2019-04-29T10:44:20.006Z,4.45
2019-04-29T10:47:06.167Z,4.47
2019-04-29T10:49:43.537Z,5.22
2019-04-29T10:52:13.769Z,4.10
2019-04-29T10:54:43.926Z,4.33
2019-04-29T10:57:15.928Z,4.70
2019-04-29T10:59:50.207Z,4.17
2019-04-29T11:02:39.817Z,5.12
2019-04-29T11:05:19.701Z,4.70
2019-04-29T11:07:50.597Z,4.90
2019-04-29T11:10:25.737Z,4.65
2019-04-29T11:12:56.579Z,5.12
2019-04-29T11:15:32.651Z,4.85
2019-04-29T11:18:03.889Z,4.72
2019-04-29T11:20:35.266Z,5.00
2019-04-29T11:23:30.842Z,4.40
2019-04-29T11:26:23.196Z,4.87
2019-04-29T11:28:54.889Z,5.00
2019-04-29T11:31:25.994Z,5.85
2019-04-29T11:34:19.406Z,5.40
2019-04-29T11:36:49.520Z,5.90
2019-04-29T11:39:19.494Z,6.53
2019-04-29T11:41:50.147Z,6.78
2019-04-29T11:44:21.871Z,7.37
2019-04-29T11:46:52.525Z,7.37
2019-04-29T11:49:29.343Z,7.83
2019-04-29T11:52:09.050Z,7.93
2019-04-29T11:54:31.283Z,8.80
2019-04-29T11:57:01.203Z,8.30
2019-04-29T11:59:53.099Z,8.53
2019-04-29T12:02:45.926Z,8.43
2019-04-29T12:05:32.262Z,8.43
2019-04-29T12:08:06.639Z,7.83
2019-04-29T12:10:39.246Z,9.13
2019-04-29T12:13:09.131Z,8.97
2019-04-29T12:15:49.236Z,9.00
2019-04-29T12:18:21.736Z,9.60
2019-04-29T12:21:06.686Z,9.47
2019-04-29T12:23:37.033Z,9.97
2019-04-29T12:26:07.510Z,10.17
2019-04-29T12:28:37.935Z,9.80
2019-04-29T12:31:17.354Z,11.50
2019-04-29T12:33:53.069Z,10.60
2019-04-29T12:36:23.132Z,11.87
2019-04-29T12:39:15.351Z,12.80
2019-04-29T12:42:05.715Z,12.50
2019-04-29T12:44:50.589Z,13.10
2019-04-29T12:47:26.747Z,13.93
2019-04-29T12:49:56.049Z,15.13
2019-04-29T12:52:26.325Z,15.00
2019-04-29T12:54:56.595Z,14.40
2019-04-29T12:57:26.512Z,15.63
2019-04-29T12:59:56.533Z,16.13
2019-04-29T13:02:51.463Z,15.97
2019-04-29T13:05:36.795Z,14.43
2019-04-29T13:08:15.846Z,16.43
2019-04-29T13:10:54.168Z,16.77
2019-04-29T13:13:24.147Z,15.77
2019-04-29T13:16:03.030Z,16.63
2019-04-29T13:18:38.825Z,16.63
2019-04-29T13:21:10.642Z,16.03
2019-04-29T13:23:59.183Z,17.57
2019-04-29T13:26:26.994Z,17.43
2019-04-29T13:28:58.878Z,16.63
2019-04-29T13:31:20.026Z,17.20
2019-04-29T13:33:51.077Z,18.60
2019-04-29T13:36:25.957Z,19.83
2019-04-29T13:38:52.767Z,19.70
2019-04-29T13:41:24.418Z,18.83
2019-04-29T13:44:03.886Z,17.97
2019-04-29T13:46:51.094Z,17.40
2019-04-29T13:49:34.256Z,17.53
2019-04-29T13:52:04.716Z,18.77
2019-04-29T13:54:37.195Z,16.93
2019-04-29T13:57:11.406Z,17.43
2019-04-29T13:59:50.356Z,18.27
2019-04-29T14:02:31.153Z,17.40
2019-04-29T14:05:00.192Z,17.33
2019-04-29T14:07:30.819Z,16.33
2019-04-29T14:10:00.817Z,16.43
2019-04-29T14:12:51.148Z,15.97
2019-04-29T14:15:04.669Z,16.33
2019-04-29T14:17:35.695Z,16.77
2019-04-29T14:20:10.682Z,17.80
2019-04-29T14:22:38.751Z,17.77
2019-04-29T14:25:09.210Z,16.63
2019-04-29T14:27:39.234Z,17.43
2019-04-29T14:30:14.274Z,17.23
2019-04-29T14:32:47.024Z,18.43
2019-04-29T14:35:36.179Z,18.97
2019-04-29T14:38:06.268Z,18.60
2019-04-29T14:40:39.042Z,18.50
2019-04-29T14:43:31.939Z,19.27
2019-04-29T14:46:18.090Z,18.60
2019-04-29T14:49:07.123Z,19.60
2019-04-29T14:51:38.026Z,18.30
2019-04-29T14:54:09.275Z,18.87
2019-04-29T14:56:39.264Z,19.67
2019-04-29T14:59:09.230Z,19.33
2019-04-29T15:01:53.680Z,19.57
2019-04-29T15:04:26.249Z,18.83
2019-04-29T15:06:57.039Z,19.63
2019-04-29T15:09:27.167Z,19.30
2019-04-29T15:12:02.415Z,19.93
2019-04-29T15:14:41.742Z,19.10
2019-04-29T15:17:46.682Z,19.43
2019-04-29T15:20:33.507Z,19.10
2019-04-29T15:23:03.590Z,20.10
2019-04-29T15:25:33.701Z,18.53
2019-04-29T15:28:03.688Z,17.93
2019-04-29T15:30:36.906Z,18.83
2019-04-29T15:33:05.451Z,19.33
2019-04-29T15:35:35.503Z,18.50
2019-04-29T15:38:05.852Z,18.13
2019-04-29T15:40:42.837Z,19.00
2019-04-29T15:43:07.859Z,19.67
2019-04-29T15:45:40.455Z,18.43
2019-04-29T15:48:09.507Z,17.20
2019-04-29T15:50:39.410Z,17.70
2019-04-29T15:53:09.319Z,18.67
2019-04-29T15:55:41.006Z,17.07
2019-04-29T15:58:11.233Z,16.27
2019-04-29T16:00:42.486Z,17.90
2019-04-29T16:03:17.875Z,17.00
2019-04-29T16:06:20.413Z,17.20
2019-04-29T16:08:46.669Z,15.90
2019-04-29T16:11:34.761Z,17.17
2019-04-29T16:14:10.211Z,17.00
2019-04-29T16:16:39.435Z,18.60
2019-04-29T16:19:10.515Z,17.73
2019-04-29T16:21:41.813Z,18.07
2019-04-29T16:24:25.994Z,19.23
2019-04-29T16:26:43.696Z,18.37
2019-04-29T16:29:15.445Z,18.97
2019-04-29T16:31:45.675Z,18.87
2019-04-29T16:34:15.750Z,18.53
2019-04-29T16:36:49.826Z,17.40
2019-04-29T16:39:18.783Z,18.63
2019-04-29T16:42:16.692Z,16.90
2019-04-29T16:44:47.473Z,18.20
2019-04-29T16:47:17.825Z,17.43
2019-04-29T16:49:47.802Z,15.93
2019-04-29T16:52:17.880Z,17.93
2019-04-29T16:54:47.838Z,18.13
2019-04-29T16:57:17.819Z,16.70
2019-04-29T16:59:48.162Z,15.77
2019-04-29T17:02:19.759Z,17.50
2019-04-29T17:04:50.335Z,16.87
2019-04-29T17:07:20.406Z,18.00
2019-04-29T17:10:08.278Z,15.60
2019-04-29T17:12:42.710Z,15.00
2019-04-29T17:15:24.157Z,14.97
2019-04-29T17:17:45.022Z,14.30
2019-04-29T17:20:15.295Z,15.03
2019-04-29T17:22:45.301Z,14.13
2019-04-29T17:25:17.097Z,14.70
2019-04-29T17:28:11.816Z,13.67
2019-04-29T17:31:13.705Z,14.03
2019-04-29T17:33:50.098Z,14.43
2019-04-29T17:36:23.556Z,15.03
2019-04-29T17:38:51.577Z,12.60
2019-04-29T17:41:21.895Z,14.83
2019-04-29T17:44:20.292Z,14.20
2019-04-29T17:47:02.726Z,12.87
2019-04-29T17:50:06.743Z,13.00
2019-04-29T17:52:36.681Z,12.83
2019-04-29T17:55:12.874Z,12.43
2019-04-29T17:57:57.773Z,18.53
2019-04-29T18:00:43.753Z,11.83
2019-04-29T18:03:41.598Z,11.73
2019-04-29T18:06:17.204Z,14.63
2019-04-29T18:09:04.845Z,12.37
2019-04-29T18:11:49.532Z,12.13
2019-04-29T18:14:08.296Z,12.60
2019-04-29T18:16:43.647Z,12.03
2019-04-29T18:19:25.054Z,12.30
2019-04-29T18:22:18.763Z,11.47
2019-04-29T18:24:57.128Z,12.27
2019-04-29T18:27:28.465Z,12.83
2019-04-29T18:29:58.452Z,11.50
2019-04-29T18:32:35.526Z,12.63
2019-04-29T18:35:00.648Z,12.53
2019-04-29T18:37:36.908Z,12.93
2019-04-29T18:40:03.582Z,14.00
2019-04-29T18:42:33.562Z,14.13
2019-04-29T18:45:05.104Z,14.30
2019-04-29T18:47:38.655Z,13.63
2019-04-29T18:50:07.388Z,11.73
2019-04-29T18:52:37.382Z,12.90
2019-04-29T18:55:07.585Z,12.93
2019-04-29T18:57:37.591Z,12.60
2019-04-29T19:00:12.087Z,14.10
2019-04-29T19:02:45.967Z,14.13
2019-04-29T19:05:17.248Z,15.37
2019-04-29T19:07:55.019Z,13.57
2019-04-29T19:10:19.434Z,13.80
2019-04-29T19:12:58.151Z,14.93
2019-04-29T19:15:21.390Z,14.87
2019-04-29T19:17:58.998Z,13.63
2019-04-29T19:20:25.027Z,15.00
2019-04-29T19:23:05.454Z,14.07
2019-04-29T19:25:27.119Z,13.87
2019-04-29T19:28:11.510Z,14.47
2019-04-29T19:30:31.770Z,13.30
2019-04-29T19:33:01.916Z,17.23
2019-04-29T19:35:34.572Z,15.37
2019-04-29T19:38:05.124Z,14.73
2019-04-29T19:40:41.363Z,16.27
2019-04-29T19:43:10.331Z,16.85
2019-04-29T19:45:39.336Z,16.67
2019-04-29T19:48:09.369Z,16.43
2019-04-29T19:50:39.492Z,15.77
2019-04-29T19:53:09.542Z,16.27
2019-04-29T19:55:42.245Z,16.43
2019-04-29T19:58:12.690Z,18.13
2019-04-29T20:00:43.675Z,17.57
2019-04-29T20:03:21.214Z,18.07
2019-04-29T20:05:50.764Z,15.97
2019-04-29T20:08:40.985Z,19.90
2019-04-29T20:10:53.112Z,18.77
2019-04-29T20:13:30.675Z,19.53
2019-04-29T20:16:12.601Z,17.87
2019-04-29T20:19:02.847Z,17.10
2019-04-29T20:21:36.267Z,20.10
2019-04-29T20:24:09.504Z,20.93
2019-04-29T20:26:38.560Z,20.90
2019-04-29T20:29:08.993Z,21.00
2019-04-29T20:31:43.555Z,20.10
2019-04-29T20:34:11.229Z,20.90
2019-04-29T20:36:43.009Z,22.37
2019-04-29T20:39:16.261Z,22.77
2019-04-29T20:41:48.741Z,21.80
2019-04-29T20:44:17.210Z,24.23
2019-04-29T20:47:13.033Z,24.43
2019-04-29T20:49:19.291Z,25.67
2019-04-29T20:51:52.390Z,23.90
2019-04-29T20:54:25.748Z,25.32
2019-04-29T20:57:02.943Z,25.10
2019-04-29T20:59:27.681Z,25.47
2019-04-29T21:02:12.157Z,25.20
2019-04-29T21:04:39.303Z,25.30
2019-04-29T21:07:04.512Z,25.77
2019-04-29T21:09:35.591Z,25.03
2019-04-29T21:12:15.680Z,26.83
2019-04-29T21:14:49.241Z,28.27
2019-04-29T21:17:28.746Z,26.60
2019-04-29T21:19:51.159Z,28.50
2019-04-29T21:22:23.603Z,28.47
2019-04-29T21:24:53.919Z,29.23
2019-04-29T21:27:26.031Z,28.10
2019-04-29T21:29:56.097Z,29.67
2019-04-29T21:32:30.592Z,32.40
2019-04-29T21:35:14.506Z,29.47
2019-04-29T21:37:49.103Z,30.40
2019-04-29T21:40:26.600Z,31.90
2019-04-29T21:43:00.842Z,31.47
2019-04-29T21:45:30.819Z,31.30
2019-04-29T21:48:01.887Z,30.13
2019-04-29T21:50:36.762Z,28.23
2019-04-29T21:53:05.095Z,31.40
2019-04-29T21:55:35.729Z,31.20
2019-04-29T21:58:05.858Z,29.63
2019-04-29T22:00:37.383Z,31.73
2019-04-29T22:03:09.071Z,29.37
2019-04-29T22:05:39.017Z,30.30
2019-04-29T22:08:08.945Z,31.17
2019-04-29T22:10:39.255Z,30.37
2019-04-29T22:13:09.645Z,31.30
2019-04-29T22:15:42.400Z,30.83
2019-04-29T22:18:13.627Z,29.80
2019-04-29T22:20:43.437Z,29.20
2019-04-29T22:23:15.250Z,32.17
2019-04-29T22:25:47.070Z,31.53
2019-04-29T22:28:19.762Z,30.70
2019-04-29T22:30:49.873Z,32.30
2019-04-29T22:33:20.770Z,32.50
2019-04-29T22:35:50.920Z,30.73
2019-04-29T22:38:20.901Z,31.47
2019-04-29T22:40:51.912Z,31.30
2019-04-29T22:43:44.607Z,31.90
2019-04-29T22:46:12.684Z,31.63
2019-04-29T22:48:45.377Z,31.57
2019-04-29T22:51:18.701Z,32.58
2019-04-29T22:53:48.174Z,33.10
2019-04-29T22:56:18.004Z,32.30
2019-04-29T22:58:47.971Z,33.07
2019-04-29T23:01:18.033Z,33.70
2019-04-29T23:03:48.006Z,32.40
2019-04-29T23:06:18.002Z,33.60
2019-04-29T23:08:48.888Z,34.37
2019-04-29T23:11:20.274Z,33.33
2019-04-29T23:13:50.069Z,31.80
2019-04-29T23:16:19.959Z,34.45
2019-04-29T23:18:49.863Z,33.27
2019-04-29T23:21:43.037Z,34.67
2019-04-29T23:24:26.619Z,33.67
2019-04-29T23:26:56.608Z,34.93
2019-04-29T23:29:26.485Z,32.93
2019-04-29T23:31:59.826Z,33.13
2019-04-29T23:34:29.566Z,32.63
2019-04-29T23:36:59.802Z,31.97
2019-04-29T23:39:29.762Z,34.23
2019-04-29T23:41:59.759Z,31.90
2019-04-29T23:44:29.772Z,33.00
2019-04-29T23:46:59.752Z,32.90
2019-04-29T23:49:29.745Z,33.00
2019-04-29T23:51:59.991Z,32.93
2019-04-29T23:54:29.946Z,33.13
2019-04-29T23:57:23.693Z,34.00
